PKNJT WAJJ-WAYY
Flight info
| Callsign | PKNJT |
|---|---|
| Flight time | 0h 42m |
| Altitude | 30000 |
| Route | ANLEP W68 OVGOD |
| Aircraft | B462/M-SDFGIRWY/LB1 |
Departure
| Time | 2026-05-05 21:03 |
|---|---|
| Airport | Dortheys Hiyo Eluay International Airport (WAJJ) |
Arrival
| Time | 2026-05-05 21:46 |
|---|---|
| Airport | Mozes Kilangin Airport (WAYY) |
| Time | Latitude | Longitude | Altitude | Speed | Heading |
|---|---|---|---|---|---|
| 2026-05-05 21:03 | -2.56301 | 140.42531 | 17273 ft | 352 kts | 273° |
| 2026-05-05 21:03 | -2.56649 | 140.40117 | 17608 ft | 354 kts | 249° |
| 2026-05-05 21:03 | -2.57905 | 140.38004 | 17948 ft | 356 kts | 231° |
| 2026-05-05 21:04 | -2.59512 | 140.36107 | 18279 ft | 359 kts | 229° |
| 2026-05-05 21:04 | -2.61167 | 140.34234 | 18611 ft | 360 kts | 227° |
| 2026-05-05 21:04 | -2.62864 | 140.32381 | 18933 ft | 362 kts | 227° |
| 2026-05-05 21:04 | -2.64587 | 140.30535 | 19261 ft | 363 kts | 226° |
| 2026-05-05 21:05 | -2.66321 | 140.28691 | 19603 ft | 365 kts | 226° |
| 2026-05-05 21:05 | -2.68070 | 140.26838 | 19933 ft | 367 kts | 226° |
| 2026-05-05 21:05 | -2.69817 | 140.24960 | 20251 ft | 370 kts | 227° |
| 2026-05-05 21:05 | -2.71559 | 140.23059 | 20626 ft | 371 kts | 227° |
| 2026-05-05 21:06 | -2.73301 | 140.21151 | 20953 ft | 373 kts | 227° |
| 2026-05-05 21:06 | -2.75055 | 140.19225 | 21273 ft | 375 kts | 227° |
| 2026-05-05 21:06 | -2.76806 | 140.17293 | 21617 ft | 377 kts | 228° |
| 2026-05-05 21:06 | -2.78533 | 140.15353 | 21956 ft | 378 kts | 228° |
| 2026-05-05 21:07 | -2.80275 | 140.13371 | 22267 ft | 380 kts | 228° |
| 2026-05-05 21:07 | -2.82019 | 140.11375 | 22601 ft | 382 kts | 229° |
| 2026-05-05 21:07 | -2.83772 | 140.09363 | 22926 ft | 383 kts | 229° |
| 2026-05-05 21:07 | -2.85509 | 140.07331 | 23237 ft | 385 kts | 229° |
| 2026-05-05 21:08 | -2.87242 | 140.05277 | 23534 ft | 387 kts | 230° |
| 2026-05-05 21:08 | -2.88978 | 140.03213 | 23797 ft | 389 kts | 230° |
| 2026-05-05 21:08 | -2.90720 | 140.01135 | 24055 ft | 391 kts | 230° |
| 2026-05-05 21:08 | -2.92450 | 139.99026 | 24305 ft | 393 kts | 231° |
| 2026-05-05 21:09 | -2.94177 | 139.96906 | 24567 ft | 394 kts | 231° |
| 2026-05-05 21:09 | -2.95908 | 139.94769 | 24820 ft | 396 kts | 231° |
| 2026-05-05 21:09 | -2.97656 | 139.92635 | 25055 ft | 398 kts | 229° |
| 2026-05-05 21:09 | -2.99419 | 139.90495 | 25319 ft | 399 kts | 232° |
| 2026-05-05 21:10 | -3.01013 | 139.88215 | 25565 ft | 401 kts | 237° |
| 2026-05-05 21:10 | -3.02439 | 139.85815 | 25804 ft | 403 kts | 241° |
| 2026-05-05 21:10 | -3.03765 | 139.83333 | 26064 ft | 404 kts | 243° |
| 2026-05-05 21:10 | -3.05036 | 139.80822 | 26308 ft | 405 kts | 243° |
| 2026-05-05 21:11 | -3.06284 | 139.78283 | 26544 ft | 407 kts | 244° |
| 2026-05-05 21:11 | -3.07520 | 139.75726 | 26792 ft | 409 kts | 244° |
| 2026-05-05 21:11 | -3.08768 | 139.73171 | 27043 ft | 410 kts | 244° |
| 2026-05-05 21:11 | -3.10022 | 139.70599 | 27270 ft | 412 kts | 244° |
| 2026-05-05 21:12 | -3.11265 | 139.68050 | 27502 ft | 413 kts | 244° |
| 2026-05-05 21:12 | -3.12531 | 139.65458 | 27736 ft | 415 kts | 244° |
| 2026-05-05 21:12 | -3.13826 | 139.62868 | 27962 ft | 417 kts | 243° |
| 2026-05-05 21:12 | -3.15124 | 139.60267 | 28184 ft | 418 kts | 244° |
| 2026-05-05 21:13 | -3.16412 | 139.57642 | 28405 ft | 420 kts | 244° |
| 2026-05-05 21:13 | -3.17707 | 139.55021 | 28633 ft | 421 kts | 243° |
| 2026-05-05 21:13 | -3.19022 | 139.52397 | 28842 ft | 423 kts | 244° |
| 2026-05-05 21:13 | -3.20326 | 139.49748 | 29042 ft | 425 kts | 244° |
| 2026-05-05 21:14 | -3.21635 | 139.47081 | 29257 ft | 427 kts | 244° |
| 2026-05-05 21:14 | -3.22943 | 139.44413 | 29466 ft | 428 kts | 244° |
| 2026-05-05 21:14 | -3.24267 | 139.41738 | 29662 ft | 430 kts | 244° |
| 2026-05-05 21:14 | -3.25620 | 139.39043 | 29756 ft | 434 kts | 244° |
| 2026-05-05 21:15 | -3.28323 | 139.33552 | 29819 ft | 445 kts | 244° |
| 2026-05-05 21:15 | -3.31116 | 139.27940 | 29832 ft | 455 kts | 244° |
| 2026-05-05 21:16 | -3.33922 | 139.22236 | 29839 ft | 464 kts | 244° |
| 2026-05-05 21:16 | -3.36824 | 139.16412 | 29851 ft | 470 kts | 244° |
| 2026-05-05 21:17 | -3.39731 | 139.10494 | 29856 ft | 476 kts | 244° |
| 2026-05-05 21:17 | -3.42727 | 139.04544 | 29858 ft | 480 kts | 243° |
| 2026-05-05 21:18 | -3.45736 | 138.98540 | 29889 ft | 484 kts | 244° |
| 2026-05-05 21:18 | -3.48764 | 138.92506 | 29889 ft | 486 kts | 243° |
| 2026-05-05 21:19 | -3.51797 | 138.86440 | 29898 ft | 488 kts | 244° |
| 2026-05-05 21:19 | -3.54850 | 138.80343 | 29901 ft | 490 kts | 243° |
| 2026-05-05 21:20 | -3.57907 | 138.74286 | 29930 ft | 491 kts | 244° |
| 2026-05-05 21:20 | -3.60954 | 138.68157 | 29941 ft | 492 kts | 243° |
| 2026-05-05 21:21 | -3.64043 | 138.62027 | 29946 ft | 493 kts | 244° |
| 2026-05-05 21:21 | -3.67095 | 138.55890 | 29980 ft | 493 kts | 243° |
| 2026-05-05 21:22 | -3.70196 | 138.49742 | 29979 ft | 493 kts | 244° |
| 2026-05-05 21:22 | -3.73214 | 138.43631 | 29986 ft | 493 kts | 243° |
| 2026-05-05 21:23 | -3.76303 | 138.37492 | 29992 ft | 494 kts | 243° |
| 2026-05-05 21:23 | -3.79395 | 138.31346 | 30015 ft | 494 kts | 244° |
| 2026-05-05 21:24 | -3.82458 | 138.25182 | 30014 ft | 494 kts | 243° |
| 2026-05-05 21:24 | -3.85552 | 138.19020 | 30015 ft | 494 kts | 244° |
| 2026-05-05 21:25 | -3.88607 | 138.12860 | 30027 ft | 494 kts | 243° |
| 2026-05-05 21:25 | -3.91693 | 138.06705 | 30027 ft | 494 kts | 244° |
| 2026-05-05 21:26 | -3.94784 | 138.00608 | 30015 ft | 494 kts | 240° |
| 2026-05-05 21:26 | -3.98767 | 137.94962 | 30017 ft | 494 kts | 230° |
| 2026-05-05 21:27 | -4.03292 | 137.89816 | 30019 ft | 494 kts | 228° |
| 2026-05-05 21:27 | -4.05524 | 137.87340 | 30009 ft | 464 kts | 228° |
| 2026-05-05 21:27 | -4.07622 | 137.85000 | 29895 ft | 440 kts | 228° |
| 2026-05-05 21:28 | -4.09664 | 137.82696 | 28775 ft | 441 kts | 229° |
| 2026-05-05 21:28 | -4.11664 | 137.80403 | 28056 ft | 434 kts | 229° |
| 2026-05-05 21:28 | -4.13638 | 137.78130 | 27347 ft | 427 kts | 229° |
| 2026-05-05 21:28 | -4.15570 | 137.75902 | 26632 ft | 422 kts | 229° |
| 2026-05-05 21:29 | -4.17486 | 137.73690 | 25930 ft | 417 kts | 229° |
| 2026-05-05 21:29 | -4.19380 | 137.71503 | 25207 ft | 413 kts | 229° |
| 2026-05-05 21:29 | -4.21250 | 137.69346 | 24562 ft | 408 kts | 229° |
| 2026-05-05 21:29 | -4.23118 | 137.67218 | 23903 ft | 404 kts | 229° |
| 2026-05-05 21:30 | -4.25054 | 137.65199 | 23179 ft | 400 kts | 218° |
| 2026-05-05 21:30 | -4.27391 | 137.63791 | 22455 ft | 396 kts | 205° |
| 2026-05-05 21:30 | -4.29920 | 137.62732 | 21722 ft | 392 kts | 200° |
| 2026-05-05 21:30 | -4.32521 | 137.61858 | 21047 ft | 388 kts | 197° |
| 2026-05-05 21:31 | -4.35099 | 137.61111 | 20385 ft | 384 kts | 195° |
| 2026-05-05 21:31 | -4.37667 | 137.60417 | 19746 ft | 380 kts | 195° |
| 2026-05-05 21:31 | -4.40222 | 137.59745 | 19091 ft | 377 kts | 194° |
| 2026-05-05 21:31 | -4.42746 | 137.59089 | 18515 ft | 373 kts | 194° |
| 2026-05-05 21:32 | -4.45247 | 137.58427 | 17878 ft | 370 kts | 195° |
| 2026-05-05 21:32 | -4.47717 | 137.57758 | 17235 ft | 365 kts | 195° |
| 2026-05-05 21:32 | -4.50125 | 137.57100 | 16612 ft | 361 kts | 196° |
| 2026-05-05 21:32 | -4.52377 | 137.56044 | 15906 ft | 358 kts | 217° |
| 2026-05-05 21:33 | -4.54003 | 137.54157 | 15795 ft | 361 kts | 242° |
| 2026-05-05 21:33 | -4.54809 | 137.51791 | 15840 ft | 360 kts | 263° |
| 2026-05-05 21:33 | -4.54788 | 137.49296 | 15863 ft | 359 kts | 276° |
| 2026-05-05 21:33 | -4.54667 | 137.46794 | 15874 ft | 360 kts | 270° |
| 2026-05-05 21:34 | -4.54850 | 137.44286 | 15882 ft | 362 kts | 263° |
| 2026-05-05 21:34 | -4.55307 | 137.41802 | 15895 ft | 363 kts | 257° |
| 2026-05-05 21:34 | -4.55966 | 137.39347 | 15901 ft | 365 kts | 253° |
| 2026-05-05 21:34 | -4.56752 | 137.36925 | 15903 ft | 366 kts | 251° |
| 2026-05-05 21:35 | -4.57614 | 137.34519 | 15907 ft | 367 kts | 250° |
| 2026-05-05 21:35 | -4.58516 | 137.32118 | 15910 ft | 368 kts | 250° |
| 2026-05-05 21:35 | -4.59432 | 137.29724 | 15907 ft | 369 kts | 249° |
| 2026-05-05 21:35 | -4.60360 | 137.27320 | 15911 ft | 370 kts | 249° |
| 2026-05-05 21:36 | -4.61276 | 137.24941 | 15312 ft | 365 kts | 250° |
| 2026-05-05 21:36 | -4.62167 | 137.22565 | 14831 ft | 362 kts | 250° |
| 2026-05-05 21:36 | -4.63036 | 137.20241 | 14405 ft | 359 kts | 250° |
| 2026-05-05 21:36 | -4.63905 | 137.17905 | 13967 ft | 356 kts | 250° |
| 2026-05-05 21:37 | -4.64766 | 137.15581 | 13529 ft | 353 kts | 250° |
| 2026-05-05 21:37 | -4.65602 | 137.13274 | 13049 ft | 350 kts | 253° |
| 2026-05-05 21:37 | -4.65869 | 137.10879 | 12563 ft | 347 kts | 277° |
| 2026-05-05 21:37 | -4.65215 | 137.08571 | 12128 ft | 344 kts | 294° |
| 2026-05-05 21:38 | -4.64121 | 137.06454 | 11705 ft | 342 kts | 300° |
| 2026-05-05 21:38 | -4.62869 | 137.04430 | 11295 ft | 340 kts | 303° |
| 2026-05-05 21:38 | -4.61572 | 137.02457 | 10908 ft | 339 kts | 303° |
| 2026-05-05 21:38 | -4.60270 | 137.00504 | 10382 ft | 334 kts | 303° |
| 2026-05-05 21:39 | -4.59007 | 136.98548 | 9558 ft | 333 kts | 302° |
| 2026-05-05 21:39 | -4.57784 | 136.96590 | 8724 ft | 329 kts | 302° |
| 2026-05-05 21:39 | -4.56637 | 136.94705 | 7445 ft | 304 kts | 301° |
| 2026-05-05 21:39 | -4.55609 | 136.92997 | 6739 ft | 267 kts | 302° |
| 2026-05-05 21:40 | -4.54722 | 136.91549 | 6525 ft | 221 kts | 302° |
| 2026-05-05 21:40 | -4.53927 | 136.90262 | 5557 ft | 224 kts | 303° |
| 2026-05-05 21:40 | -4.53082 | 136.88921 | 4535 ft | 228 kts | 303° |
| 2026-05-05 21:40 | -4.52246 | 136.87573 | 3586 ft | 226 kts | 300° |
| 2026-05-05 21:41 | -4.51844 | 136.86071 | 2759 ft | 232 kts | 264° |
| 2026-05-05 21:41 | -4.52400 | 136.84570 | 2386 ft | 224 kts | 229° |
| 2026-05-05 21:41 | -4.53592 | 136.83742 | 2195 ft | 206 kts | 192° |
| 2026-05-05 21:41 | -4.54984 | 136.83574 | 2203 ft | 200 kts | 186° |
| 2026-05-05 21:42 | -4.56248 | 136.83095 | 2290 ft | 192 kts | 215° |
| 2026-05-05 21:42 | -4.56875 | 136.82081 | 2563 ft | 161 kts | 268° |
| 2026-05-05 21:42 | -4.56401 | 136.81196 | 2536 ft | 151 kts | 332° |
| 2026-05-05 21:42 | -4.55407 | 136.81067 | 2381 ft | 141 kts | 16° |
| 2026-05-05 21:43 | -4.54511 | 136.81435 | 2025 ft | 139 kts | 32° |
| 2026-05-05 21:43 | -4.53714 | 136.81927 | 1757 ft | 131 kts | 35° |
| 2026-05-05 21:43 | -4.52996 | 136.82390 | 1636 ft | 119 kts | 39° |
| 2026-05-05 21:43 | -4.52324 | 136.82921 | 1492 ft | 121 kts | 45° |
| 2026-05-05 21:44 | -4.51700 | 136.83443 | 1303 ft | 113 kts | 41° |
| 2026-05-05 21:44 | -4.51097 | 136.84023 | 1193 ft | 120 kts | 53° |
| 2026-05-05 21:44 | -4.50771 | 136.84793 | 1106 ft | 127 kts | 84° |
| 2026-05-05 21:44 | -4.51013 | 136.85653 | 844 ft | 139 kts | 121° |
| 2026-05-05 21:45 | -4.51372 | 136.86183 | 617 ft | 138 kts | 124° |
| 2026-05-05 21:45 | -4.52058 | 136.87264 | 279 ft | 145 kts | 122° |
| 2026-05-05 21:45 | -4.52393 | 136.87812 | 150 ft | 131 kts | 122° |
| 2026-05-05 21:45 | -4.52834 | 136.88509 | 112 ft | 102 kts | 122° |
| 2026-05-05 21:46 | -4.53121 | 136.88982 | 108 ft | 50 kts | 122° |
| 2026-05-05 21:46 | -4.53245 | 136.89184 | 107 ft | 22 kts | 121° |
| 2026-05-05 21:46 | -4.53307 | 136.89284 | 108 ft | 15 kts | 121° |
| 2026-05-05 21:46 | -4.53361 | 136.89364 | 108 ft | 12 kts | 147° |
| 2026-05-05 21:47 | -4.53362 | 136.89378 | 108 ft | 7 kts | 273° |
| 2026-05-05 21:47 | -4.53340 | 136.89335 | 109 ft | 14 kts | 302° |
| 2026-05-05 21:47 | -4.53289 | 136.89254 | 107 ft | 14 kts | 302° |
| 2026-05-05 21:47 | -4.53237 | 136.89171 | 106 ft | 14 kts | 302° |
| 2026-05-05 21:48 | -4.53185 | 136.89088 | 107 ft | 16 kts | 302° |
| 2026-05-05 21:48 | -4.53115 | 136.88976 | 108 ft | 23 kts | 302° |
| 2026-05-05 21:48 | -4.53019 | 136.88822 | 107 ft | 29 kts | 302° |
| 2026-05-05 21:48 | -4.52904 | 136.88637 | 110 ft | 34 kts | 302° |
| 2026-05-05 21:49 | -4.52818 | 136.88456 | 109 ft | 15 kts | 223° |
| 2026-05-05 21:49 | -4.52888 | 136.88415 | 111 ft | 11 kts | 210° |
| 2026-05-05 21:49 | -4.52928 | 136.88371 | 111 ft | 5 kts | 269° |
| 2026-05-05 21:49 | -4.52927 | 136.88344 | 111 ft | 3 kts | 281° |
| 2026-05-05 21:50 | -4.52921 | 136.88328 | 110 ft | 2 kts | 296° |
| 2026-05-05 21:50 | -4.52915 | 136.88315 | 111 ft | 2 kts | 296° |
| 2026-05-05 21:50 | -4.52900 | 136.88287 | 110 ft | 7 kts | 300° |
| 2026-05-05 21:50 | -4.52891 | 136.88242 | 111 ft | 6 kts | 228° |
| 2026-05-05 21:51 | -4.52910 | 136.88221 | 113 ft | 2 kts | 235° |
| 2026-05-05 21:51 | -4.52917 | 136.88216 | 114 ft | 1 kts | 219° |
| 2026-05-05 21:51 | -4.52921 | 136.88213 | 114 ft | 1 kts | 218° |
| 2026-05-05 21:51 | -4.52922 | 136.88212 | 114 ft | 0 kts | 217° |